KLM274 GMMN-KEWR
Flight info
| Callsign | KLM274 |
|---|---|
| Flight time | N/A |
| Altitude | 38000 |
| Route | RAVOL UH500 NISBA DCT MANOX/M085F380 DCT LENSI DCT 42N030W 43N040W 44N050W DCT LOMPI/N0486F380 N56G BRADD DCT NELIE FLOSI4 |
| Aircraft | A359/H-SDE2E3GHIJ3J4J5LM1ORWXY/LB1D1 |
Departure
| Time | 2026-04-28 20:03 |
|---|---|
| Airport | Mohammed V International Airport (GMMN) |
Arrival
| Time | N/A |
|---|---|
| Airport | Newark Liberty International Airport (KEWR) |
| Time | Latitude | Longitude | Altitude | Speed | Heading |
|---|---|---|---|---|---|
| 2026-04-28 19:52 | 33.35862 | -7.57867 | 661 ft | 0 kts | 167° |
| 2026-04-28 19:58 | 33.35861 | -7.57867 | 661 ft | 0 kts | 167° |
| 2026-04-28 19:58 | 33.35847 | -7.57863 | 661 ft | 11 kts | 166° |
| 2026-04-28 19:58 | 33.35767 | -7.57839 | 661 ft | 11 kts | 166° |
| 2026-04-28 19:58 | 33.35674 | -7.57855 | 662 ft | 13 kts | 210° |
| 2026-04-28 19:59 | 33.35650 | -7.57880 | 662 ft | 11 kts | 224° |
| 2026-04-28 19:59 | 33.35604 | -7.57951 | 662 ft | 11 kts | 252° |
| 2026-04-28 19:59 | 33.35561 | -7.58143 | 662 ft | 16 kts | 259° |
| 2026-04-28 19:59 | 33.35557 | -7.58166 | 660 ft | 0 kts | 259° |
| 2026-04-28 20:00 | 33.35545 | -7.58228 | 662 ft | 16 kts | 255° |
| 2026-04-28 20:00 | 33.35529 | -7.58308 | 661 ft | 13 kts | 266° |
| 2026-04-28 20:00 | 33.35555 | -7.58366 | 661 ft | 5 kts | 329° |
| 2026-04-28 20:00 | 33.35559 | -7.58368 | 661 ft | 0 kts | 331° |
| 2026-04-28 20:02 | 33.35615 | -7.58399 | 661 ft | 25 kts | 339° |
| 2026-04-28 20:02 | 33.36000 | -7.58528 | 658 ft | 91 kts | 344° |
| 2026-04-28 20:03 | 33.36837 | -7.58811 | 731 ft | 154 kts | 342° |
| 2026-04-28 20:03 | 33.37990 | -7.59192 | 1200 ft | 180 kts | 343° |
| 2026-04-28 20:03 | 33.39221 | -7.59618 | 2126 ft | 195 kts | 343° |
| 2026-04-28 20:03 | 33.40507 | -7.60469 | 2646 ft | 231 kts | 311° |
| 2026-04-28 20:04 | 33.41152 | -7.62275 | 3595 ft | 243 kts | 278° |
| 2026-04-28 20:04 | 33.41320 | -7.64257 | 4898 ft | 235 kts | 273° |
| 2026-04-28 20:04 | 33.41472 | -7.66215 | 5592 ft | 241 kts | 274° |
| 2026-04-28 20:04 | 33.41668 | -7.68242 | 6155 ft | 248 kts | 275° |
| 2026-04-28 20:05 | 33.41904 | -7.70306 | 6761 ft | 252 kts | 276° |
| 2026-04-28 20:05 | 33.42160 | -7.72391 | 7397 ft | 254 kts | 276° |
| 2026-04-28 20:05 | 33.42427 | -7.74482 | 7995 ft | 255 kts | 277° |
| 2026-04-28 20:05 | 33.42699 | -7.76590 | 8576 ft | 258 kts | 277° |
| 2026-04-28 20:06 | 33.42979 | -7.78714 | 9163 ft | 259 kts | 277° |
| 2026-04-28 20:06 | 33.43260 | -7.80841 | 9779 ft | 259 kts | 278° |
| 2026-04-28 20:06 | 33.43543 | -7.82986 | 10299 ft | 262 kts | 277° |
| 2026-04-28 20:06 | 33.43827 | -7.85153 | 10759 ft | 265 kts | 277° |
| 2026-04-28 20:07 | 33.44116 | -7.87340 | 11227 ft | 267 kts | 277° |
| 2026-04-28 20:07 | 33.44312 | -7.88829 | 11542 ft | 269 kts | 277° |
| 2026-04-28 20:07 | 33.44699 | -7.91771 | 12170 ft | 271 kts | 277° |
| 2026-04-28 20:07 | 33.44994 | -7.94015 | 12657 ft | 273 kts | 277° |
| 2026-04-28 20:08 | 33.45289 | -7.96268 | 13182 ft | 275 kts | 277° |
| 2026-04-28 20:08 | 33.45586 | -7.98536 | 13687 ft | 277 kts | 276° |
| 2026-04-28 20:08 | 33.45885 | -8.00820 | 14136 ft | 279 kts | 276° |
| 2026-04-28 20:08 | 33.46186 | -8.03122 | 14593 ft | 280 kts | 277° |
| 2026-04-28 20:09 | 33.46487 | -8.05432 | 15058 ft | 281 kts | 277° |
| 2026-04-28 20:09 | 33.46789 | -8.07750 | 15544 ft | 282 kts | 277° |
| 2026-04-28 20:09 | 33.47091 | -8.10077 | 16002 ft | 284 kts | 277° |
| 2026-04-28 20:09 | 33.47395 | -8.12420 | 16479 ft | 285 kts | 277° |
| 2026-04-28 20:10 | 33.47701 | -8.14776 | 16961 ft | 287 kts | 277° |
| 2026-04-28 20:10 | 33.48007 | -8.17142 | 17428 ft | 288 kts | 277° |
| 2026-04-28 20:10 | 33.48314 | -8.19521 | 17903 ft | 290 kts | 277° |
| 2026-04-28 20:10 | 33.48623 | -8.21913 | 18352 ft | 291 kts | 277° |
| 2026-04-28 20:11 | 33.48933 | -8.24323 | 18748 ft | 293 kts | 277° |
| 2026-04-28 20:11 | 33.49244 | -8.26743 | 19146 ft | 295 kts | 277° |
| 2026-04-28 20:11 | 33.49557 | -8.29176 | 19545 ft | 297 kts | 277° |
| 2026-04-28 20:11 | 33.49871 | -8.31623 | 19929 ft | 298 kts | 277° |
| 2026-04-28 20:12 | 33.50186 | -8.34085 | 20345 ft | 300 kts | 277° |
| 2026-04-28 20:12 | 33.50501 | -8.36558 | 20764 ft | 300 kts | 277° |
| 2026-04-28 20:12 | 33.50818 | -8.39035 | 21166 ft | 302 kts | 277° |
| 2026-04-28 20:12 | 33.51135 | -8.41526 | 21545 ft | 304 kts | 277° |
| 2026-04-28 20:13 | 33.51454 | -8.44036 | 21924 ft | 305 kts | 277° |
| 2026-04-28 20:13 | 33.51791 | -8.46552 | 22291 ft | 307 kts | 279° |
| 2026-04-28 20:13 | 33.52320 | -8.49052 | 22588 ft | 313 kts | 284° |
| 2026-04-28 20:13 | 33.52992 | -8.51570 | 22745 ft | 322 kts | 287° |
| 2026-04-28 20:14 | 33.53749 | -8.54129 | 22917 ft | 330 kts | 288° |
| 2026-04-28 20:14 | 33.54555 | -8.56746 | 23052 ft | 338 kts | 288° |
| 2026-04-28 20:14 | 33.55382 | -8.59419 | 23214 ft | 346 kts | 288° |
| 2026-04-28 20:14 | 33.56220 | -8.62159 | 23372 ft | 354 kts | 288° |
| 2026-04-28 20:15 | 33.57066 | -8.64963 | 23518 ft | 361 kts | 288° |
| 2026-04-28 20:15 | 33.57921 | -8.67828 | 23658 ft | 368 kts | 288° |
| 2026-04-28 20:15 | 33.58786 | -8.70750 | 23768 ft | 375 kts | 288° |
| 2026-04-28 20:15 | 33.59663 | -8.73729 | 23892 ft | 382 kts | 288° |
| 2026-04-28 20:16 | 33.60553 | -8.76759 | 24010 ft | 388 kts | 288° |
| 2026-04-28 20:16 | 33.61457 | -8.79833 | 24126 ft | 394 kts | 288° |
| 2026-04-28 20:16 | 33.62375 | -8.82958 | 24242 ft | 400 kts | 288° |
| 2026-04-28 20:16 | 33.63307 | -8.86134 | 24356 ft | 406 kts | 288° |
| 2026-04-28 20:17 | 33.64250 | -8.89347 | 24469 ft | 411 kts | 288° |
| 2026-04-28 20:17 | 33.65204 | -8.92605 | 24583 ft | 416 kts | 288° |
| 2026-04-28 20:17 | 33.66168 | -8.95901 | 24765 ft | 419 kts | 288° |
| 2026-04-28 20:17 | 33.67135 | -8.99201 | 24995 ft | 421 kts | 289° |
| 2026-04-28 20:18 | 33.68255 | -9.02459 | 25223 ft | 423 kts | 294° |
| 2026-04-28 20:18 | 33.69097 | -9.04566 | 25384 ft | 424 kts | 295° |
| 2026-04-28 20:18 | 33.70869 | -9.08809 | 25719 ft | 426 kts | 296° |
| 2026-04-28 20:18 | 33.72224 | -9.11960 | 26075 ft | 424 kts | 297° |
| 2026-04-28 20:19 | 33.73587 | -9.15096 | 26412 ft | 423 kts | 297° |
| 2026-04-28 20:19 | 33.74954 | -9.18234 | 26673 ft | 425 kts | 297° |
| 2026-04-28 20:19 | 33.76321 | -9.21380 | 26914 ft | 426 kts | 297° |
| 2026-04-28 20:19 | 33.77695 | -9.24553 | 27186 ft | 428 kts | 297° |
| 2026-04-28 20:20 | 33.79066 | -9.27729 | 27468 ft | 429 kts | 297° |
| 2026-04-28 20:20 | 33.80435 | -9.30910 | 27754 ft | 430 kts | 297° |
| 2026-04-28 20:20 | 33.81810 | -9.34107 | 28024 ft | 431 kts | 298° |
| 2026-04-28 20:20 | 33.83188 | -9.37319 | 28300 ft | 432 kts | 298° |
| 2026-04-28 20:21 | 33.84568 | -9.40538 | 28592 ft | 433 kts | 298° |
| 2026-04-28 20:21 | 33.85949 | -9.43760 | 28893 ft | 435 kts | 298° |
| 2026-04-28 20:21 | 33.87334 | -9.46998 | 29181 ft | 435 kts | 299° |
| 2026-04-28 20:21 | 33.88707 | -9.50213 | 29763 ft | 430 kts | 299° |
| 2026-04-28 20:22 | 33.90072 | -9.53408 | 30126 ft | 430 kts | 299° |
| 2026-04-28 20:22 | 33.91441 | -9.56613 | 30298 ft | 433 kts | 299° |
| 2026-04-28 20:22 | 33.92824 | -9.59853 | 30480 ft | 436 kts | 299° |
| 2026-04-28 20:22 | 33.94214 | -9.63113 | 30715 ft | 438 kts | 299° |
| 2026-04-28 20:23 | 33.95603 | -9.66374 | 30937 ft | 439 kts | 299° |
| 2026-04-28 20:23 | 33.97001 | -9.69660 | 31171 ft | 441 kts | 299° |
| 2026-04-28 20:23 | 33.98399 | -9.72951 | 31399 ft | 443 kts | 299° |
| 2026-04-28 20:23 | 33.99787 | -9.76219 | 31589 ft | 445 kts | 299° |
| 2026-04-28 20:24 | 34.01219 | -9.79596 | 31818 ft | 446 kts | 299° |
| 2026-04-28 20:24 | 34.02611 | -9.82884 | 32001 ft | 448 kts | 299° |
| 2026-04-28 20:24 | 34.04028 | -9.86233 | 32230 ft | 448 kts | 299° |
| 2026-04-28 20:24 | 34.05447 | -9.89589 | 32453 ft | 450 kts | 299° |
| 2026-04-28 20:25 | 34.06870 | -9.92957 | 32611 ft | 452 kts | 299° |
| 2026-04-28 20:25 | 34.08295 | -9.96333 | 32820 ft | 453 kts | 299° |
| 2026-04-28 20:25 | 34.09728 | -9.99731 | 32937 ft | 454 kts | 298° |
| 2026-04-28 20:26 | 34.12583 | -10.06514 | 32958 ft | 453 kts | 298° |
| 2026-04-28 20:26 | 34.15434 | -10.13300 | 32957 ft | 454 kts | 298° |
| 2026-04-28 20:27 | 34.18283 | -10.20097 | 32954 ft | 454 kts | 298° |
| 2026-04-28 20:27 | 34.21132 | -10.26902 | 32958 ft | 454 kts | 298° |
| 2026-04-28 20:28 | 34.23975 | -10.33711 | 32960 ft | 454 kts | 298° |
| 2026-04-28 20:28 | 34.26816 | -10.40525 | 32961 ft | 454 kts | 298° |
| 2026-04-28 20:29 | 34.29654 | -10.47349 | 32951 ft | 454 kts | 298° |
| 2026-04-28 20:29 | 34.32481 | -10.54159 | 32956 ft | 453 kts | 298° |
| 2026-04-28 20:30 | 34.35288 | -10.60932 | 32959 ft | 453 kts | 298° |
| 2026-04-28 20:30 | 34.38124 | -10.67792 | 32961 ft | 452 kts | 298° |
| 2026-04-28 20:31 | 34.40916 | -10.74558 | 32964 ft | 452 kts | 298° |
| 2026-04-28 20:31 | 34.43721 | -10.81368 | 32963 ft | 452 kts | 298° |
| 2026-04-28 20:32 | 34.46524 | -10.88188 | 32966 ft | 452 kts | 298° |
| 2026-04-28 20:32 | 34.49327 | -10.95021 | 32949 ft | 452 kts | 298° |
| 2026-04-28 20:33 | 34.52116 | -11.01836 | 32972 ft | 450 kts | 298° |
| 2026-04-28 20:33 | 34.54896 | -11.08642 | 32968 ft | 450 kts | 298° |
| 2026-04-28 20:34 | 34.57669 | -11.15444 | 32965 ft | 450 kts | 298° |
| 2026-04-28 20:34 | 34.60437 | -11.22247 | 32969 ft | 450 kts | 297° |
| 2026-04-28 20:35 | 34.63202 | -11.29056 | 32969 ft | 450 kts | 297° |
| 2026-04-28 20:35 | 34.65965 | -11.35875 | 32968 ft | 450 kts | 297° |
| 2026-04-28 20:36 | 34.68722 | -11.42694 | 32974 ft | 449 kts | 297° |
| 2026-04-28 20:36 | 34.71474 | -11.49513 | 32977 ft | 449 kts | 297° |
| 2026-04-28 20:37 | 34.74216 | -11.56321 | 32972 ft | 448 kts | 297° |
| 2026-04-28 20:37 | 34.76934 | -11.63084 | 32971 ft | 448 kts | 297° |
| 2026-04-28 20:38 | 34.79685 | -11.69943 | 32972 ft | 448 kts | 297° |
| 2026-04-28 20:38 | 34.82393 | -11.76710 | 32977 ft | 448 kts | 297° |
| 2026-04-28 20:39 | 34.85116 | -11.83527 | 32974 ft | 448 kts | 297° |
| 2026-04-28 20:39 | 34.87837 | -11.90354 | 32974 ft | 448 kts | 297° |
| 2026-04-28 20:40 | 34.90553 | -11.97182 | 32973 ft | 448 kts | 297° |
| 2026-04-28 20:40 | 34.93262 | -12.04006 | 32972 ft | 447 kts | 297° |
| 2026-04-28 20:41 | 34.95966 | -12.10830 | 32978 ft | 447 kts | 297° |
| 2026-04-28 20:41 | 34.98662 | -12.17650 | 32979 ft | 447 kts | 297° |
| 2026-04-28 20:42 | 35.01356 | -12.24478 | 32984 ft | 447 kts | 297° |
| 2026-04-28 20:42 | 35.04048 | -12.31316 | 32980 ft | 447 kts | 297° |
| 2026-04-28 20:43 | 35.06733 | -12.38151 | 32984 ft | 447 kts | 296° |
| 2026-04-28 20:43 | 35.09416 | -12.44994 | 32983 ft | 447 kts | 296° |
| 2026-04-28 20:44 | 35.12097 | -12.51847 | 32987 ft | 447 kts | 296° |
| 2026-04-28 20:44 | 35.14770 | -12.58694 | 32986 ft | 446 kts | 296° |
| 2026-04-28 20:45 | 35.16985 | -12.64379 | 32989 ft | 446 kts | 296° |
| 2026-04-28 20:45 | 35.19650 | -12.71232 | 32988 ft | 446 kts | 296° |
| 2026-04-28 20:46 | 35.22310 | -12.78085 | 32979 ft | 446 kts | 296° |
| 2026-04-28 20:46 | 35.24968 | -12.84946 | 32991 ft | 446 kts | 296° |
| 2026-04-28 20:47 | 35.27616 | -12.91799 | 32996 ft | 446 kts | 296° |
| 2026-04-28 20:47 | 35.30262 | -12.98660 | 32994 ft | 446 kts | 296° |
| 2026-04-28 20:48 | 35.32906 | -13.05533 | 32991 ft | 446 kts | 296° |
| 2026-04-28 20:48 | 35.35544 | -13.12401 | 32996 ft | 446 kts | 296° |
| 2026-04-28 20:49 | 35.38180 | -13.19279 | 32996 ft | 446 kts | 295° |
| 2026-04-28 20:49 | 35.40812 | -13.26163 | 33001 ft | 446 kts | 295° |
| 2026-04-28 20:50 | 35.43439 | -13.33050 | 33002 ft | 446 kts | 295° |
| 2026-04-28 20:50 | 35.46065 | -13.39946 | 33003 ft | 446 kts | 295° |
| 2026-04-28 20:51 | 35.48684 | -13.46839 | 33006 ft | 446 kts | 295° |
| 2026-04-28 20:51 | 35.51300 | -13.53739 | 33002 ft | 445 kts | 295° |
| 2026-04-28 20:52 | 35.53905 | -13.60627 | 33003 ft | 445 kts | 295° |
| 2026-04-28 20:52 | 35.56507 | -13.67519 | 33010 ft | 445 kts | 295° |
| 2026-04-28 20:53 | 35.60401 | -13.77865 | 33007 ft | 445 kts | 295° |
| 2026-04-28 20:53 | 35.62993 | -13.84769 | 33012 ft | 445 kts | 295° |
| 2026-04-28 20:54 | 35.65582 | -13.91677 | 33011 ft | 446 kts | 295° |
| 2026-04-28 20:54 | 35.68173 | -13.98610 | 33033 ft | 446 kts | 295° |
| 2026-04-28 20:55 | 35.70755 | -14.05532 | 33015 ft | 445 kts | 295° |
| 2026-04-28 20:55 | 35.73330 | -14.12450 | 33018 ft | 444 kts | 295° |
| 2026-04-28 20:56 | 35.75897 | -14.19362 | 33020 ft | 444 kts | 295° |
| 2026-04-28 20:56 | 35.78464 | -14.26290 | 33016 ft | 445 kts | 294° |
| 2026-04-28 20:57 | 35.81029 | -14.33227 | 33016 ft | 445 kts | 294° |
| 2026-04-28 20:57 | 35.83592 | -14.40174 | 33017 ft | 445 kts | 294° |
| 2026-04-28 20:58 | 35.86151 | -14.47125 | 33017 ft | 445 kts | 294° |
| 2026-04-28 20:58 | 35.88705 | -14.54078 | 33023 ft | 444 kts | 294° |
| 2026-04-28 20:59 | 35.91247 | -14.61015 | 33020 ft | 444 kts | 294° |
| 2026-04-28 20:59 | 35.93791 | -14.67972 | 33026 ft | 445 kts | 294° |
| 2026-04-28 21:00 | 35.96332 | -14.74932 | 33029 ft | 445 kts | 294° |
| 2026-04-28 21:00 | 35.98866 | -14.81893 | 33032 ft | 445 kts | 294° |
| 2026-04-28 21:01 | 36.01395 | -14.88857 | 33029 ft | 445 kts | 294° |
| 2026-04-28 21:01 | 36.03923 | -14.95831 | 33022 ft | 445 kts | 294° |
| 2026-04-28 21:02 | 36.06450 | -15.02822 | 33031 ft | 445 kts | 294° |
| 2026-04-28 21:02 | 36.08971 | -15.09807 | 33032 ft | 445 kts | 294° |
| 2026-04-28 21:03 | 36.11484 | -15.16788 | 33029 ft | 445 kts | 293° |
| 2026-04-28 21:03 | 36.13997 | -15.23785 | 33031 ft | 445 kts | 293° |
| 2026-04-28 21:04 | 36.16504 | -15.30781 | 33033 ft | 445 kts | 293° |
| 2026-04-28 21:04 | 36.19117 | -15.37715 | 33034 ft | 445 kts | 298° |
| 2026-04-28 21:05 | 36.22674 | -15.44004 | 33053 ft | 447 kts | 306° |
| 2026-04-28 21:05 | 36.26541 | -15.50021 | 33034 ft | 446 kts | 307° |
| 2026-04-28 21:06 | 36.30451 | -15.55987 | 33034 ft | 446 kts | 307° |
| 2026-04-28 21:06 | 36.34350 | -15.61968 | 33034 ft | 446 kts | 307° |
| 2026-04-28 21:07 | 36.38234 | -15.67965 | 33040 ft | 447 kts | 307° |
| 2026-04-28 21:07 | 36.42123 | -15.73991 | 33036 ft | 448 kts | 307° |
| 2026-04-28 21:08 | 36.46014 | -15.80032 | 33039 ft | 447 kts | 307° |
| 2026-04-28 21:08 | 36.49898 | -15.86071 | 33037 ft | 447 kts | 307° |
| 2026-04-28 21:09 | 36.53776 | -15.92111 | 33041 ft | 447 kts | 307° |
| 2026-04-28 21:09 | 36.57651 | -15.98157 | 33041 ft | 447 kts | 307° |
| 2026-04-28 21:10 | 36.61527 | -16.04214 | 33037 ft | 449 kts | 306° |
| 2026-04-28 21:10 | 36.65385 | -16.10257 | 33051 ft | 448 kts | 307° |
| 2026-04-28 21:11 | 36.69281 | -16.16368 | 33054 ft | 447 kts | 307° |
| 2026-04-28 21:11 | 36.73125 | -16.22409 | 33041 ft | 448 kts | 307° |
| 2026-04-28 21:12 | 36.76991 | -16.28495 | 33034 ft | 448 kts | 306° |
| 2026-04-28 21:12 | 36.80879 | -16.34628 | 33035 ft | 448 kts | 306° |
| 2026-04-28 21:13 | 36.84744 | -16.40736 | 33034 ft | 449 kts | 306° |
| 2026-04-28 21:13 | 36.88613 | -16.46859 | 33034 ft | 449 kts | 306° |
| 2026-04-28 21:14 | 36.92453 | -16.52949 | 33046 ft | 449 kts | 306° |
| 2026-04-28 21:14 | 36.96320 | -16.59093 | 33059 ft | 449 kts | 306° |
| 2026-04-28 21:15 | 37.00183 | -16.65241 | 33065 ft | 449 kts | 306° |
| 2026-04-28 21:15 | 37.02111 | -16.68315 | 33267 ft | 449 kts | 306° |
| 2026-04-28 21:15 | 37.04036 | -16.71385 | 33536 ft | 449 kts | 306° |
| 2026-04-28 21:16 | 37.05964 | -16.74464 | 33755 ft | 450 kts | 306° |
| 2026-04-28 21:16 | 37.07895 | -16.77550 | 34051 ft | 449 kts | 306° |
| 2026-04-28 21:16 | 37.09815 | -16.80620 | 34331 ft | 448 kts | 306° |
| 2026-04-28 21:16 | 37.11732 | -16.83690 | 34577 ft | 447 kts | 306° |
| 2026-04-28 21:17 | 37.13648 | -16.86759 | 34806 ft | 447 kts | 306° |
| 2026-04-28 21:17 | 37.15556 | -16.89820 | 35050 ft | 446 kts | 306° |
| 2026-04-28 21:17 | 37.17468 | -16.92890 | 35286 ft | 446 kts | 306° |
| 2026-04-28 21:17 | 37.19375 | -16.95955 | 35531 ft | 445 kts | 306° |
| 2026-04-28 21:18 | 37.21281 | -16.99020 | 35768 ft | 445 kts | 306° |
| 2026-04-28 21:18 | 37.23182 | -17.02082 | 36003 ft | 445 kts | 306° |
| 2026-04-28 21:18 | 37.25083 | -17.05145 | 36226 ft | 445 kts | 306° |
| 2026-04-28 21:18 | 37.26986 | -17.08215 | 36372 ft | 446 kts | 306° |
| 2026-04-28 21:19 | 37.28890 | -17.11289 | 36559 ft | 447 kts | 306° |
| 2026-04-28 21:19 | 37.30797 | -17.14371 | 36805 ft | 446 kts | 306° |
| 2026-04-28 21:19 | 37.32698 | -17.17446 | 37045 ft | 445 kts | 306° |
| 2026-04-28 21:19 | 37.34593 | -17.20513 | 37271 ft | 444 kts | 306° |
| 2026-04-28 21:20 | 37.36486 | -17.23581 | 37508 ft | 444 kts | 306° |
| 2026-04-28 21:20 | 37.38376 | -17.26647 | 37719 ft | 443 kts | 306° |
| 2026-04-28 21:20 | 37.40264 | -17.29713 | 37950 ft | 443 kts | 307° |
| 2026-04-28 21:20 | 37.42148 | -17.32775 | 38047 ft | 444 kts | 307° |
| 2026-04-28 21:21 | 37.45938 | -17.38943 | 38054 ft | 445 kts | 306° |
| 2026-04-28 21:21 | 37.49728 | -17.45118 | 38055 ft | 446 kts | 306° |
| 2026-04-28 21:22 | 37.53495 | -17.51271 | 38055 ft | 446 kts | 306° |
| 2026-04-28 21:22 | 37.56665 | -17.56461 | 38078 ft | 446 kts | 306° |
| 2026-04-28 21:23 | 37.61084 | -17.63705 | 38057 ft | 446 kts | 306° |
| 2026-04-28 21:23 | 37.64836 | -17.69867 | 38056 ft | 446 kts | 306° |
| 2026-04-28 21:24 | 37.68610 | -17.76075 | 38049 ft | 446 kts | 306° |
| 2026-04-28 21:24 | 37.72388 | -17.82304 | 38058 ft | 447 kts | 306° |
| 2026-04-28 21:25 | 37.76163 | -17.88541 | 38069 ft | 447 kts | 306° |
| 2026-04-28 21:25 | 37.79932 | -17.94779 | 38065 ft | 446 kts | 306° |
| 2026-04-28 21:26 | 37.83697 | -18.01022 | 38065 ft | 446 kts | 306° |
| 2026-04-28 21:26 | 37.87460 | -18.07272 | 38065 ft | 446 kts | 306° |
| 2026-04-28 21:27 | 37.91220 | -18.13528 | 38061 ft | 447 kts | 306° |
| 2026-04-28 21:27 | 37.94976 | -18.19794 | 38067 ft | 447 kts | 306° |
| 2026-04-28 21:28 | 37.98096 | -18.25006 | 38067 ft | 446 kts | 306° |
| 2026-04-28 21:28 | 38.01843 | -18.31276 | 38067 ft | 446 kts | 306° |
| 2026-04-28 21:29 | 38.05591 | -18.37560 | 38067 ft | 446 kts | 306° |
| 2026-04-28 21:29 | 38.09334 | -18.43848 | 38070 ft | 446 kts | 306° |
| 2026-04-28 21:30 | 38.13074 | -18.50142 | 38072 ft | 446 kts | 305° |
| 2026-04-28 21:30 | 38.16806 | -18.56435 | 38074 ft | 446 kts | 305° |
| 2026-04-28 21:31 | 38.20536 | -18.62737 | 38069 ft | 446 kts | 305° |
| 2026-04-28 21:31 | 38.24261 | -18.69043 | 38069 ft | 446 kts | 305° |
| 2026-04-28 21:32 | 38.27986 | -18.75361 | 38083 ft | 446 kts | 305° |
| 2026-04-28 21:32 | 38.31700 | -18.81674 | 38070 ft | 446 kts | 305° |
| 2026-04-28 21:33 | 38.35414 | -18.87997 | 38072 ft | 446 kts | 305° |
| 2026-04-28 21:33 | 38.39123 | -18.94323 | 38072 ft | 446 kts | 305° |
| 2026-04-28 21:34 | 38.42827 | -19.00655 | 38076 ft | 446 kts | 305° |
| 2026-04-28 21:34 | 38.46532 | -19.07000 | 38078 ft | 445 kts | 306° |
| 2026-04-28 21:35 | 38.50230 | -19.13345 | 38069 ft | 445 kts | 305° |
| 2026-04-28 21:35 | 38.53920 | -19.19687 | 38078 ft | 446 kts | 305° |
| 2026-04-28 21:36 | 38.57619 | -19.26060 | 38078 ft | 446 kts | 305° |
| 2026-04-28 21:36 | 38.61310 | -19.32433 | 38078 ft | 446 kts | 305° |
| 2026-04-28 21:37 | 38.65001 | -19.38817 | 38078 ft | 446 kts | 305° |
| 2026-04-28 21:37 | 38.68683 | -19.45196 | 38078 ft | 446 kts | 305° |
| 2026-04-28 21:38 | 38.72371 | -19.51598 | 38081 ft | 447 kts | 304° |
| 2026-04-28 21:38 | 38.76058 | -19.58013 | 38080 ft | 447 kts | 304° |
| 2026-04-28 21:39 | 38.79742 | -19.64437 | 38087 ft | 447 kts | 305° |
| 2026-04-28 21:39 | 38.83422 | -19.70866 | 38083 ft | 447 kts | 305° |
| 2026-04-28 21:40 | 38.87094 | -19.77292 | 38083 ft | 447 kts | 304° |
| 2026-04-28 21:40 | 38.90770 | -19.83735 | 38084 ft | 447 kts | 304° |
| 2026-04-28 21:41 | 38.94441 | -19.90186 | 38083 ft | 448 kts | 304° |
| 2026-04-28 21:41 | 38.98111 | -19.96650 | 38083 ft | 448 kts | 304° |
| 2026-04-28 21:42 | 39.01221 | -20.03484 | 38084 ft | 446 kts | 295° |
| 2026-04-28 21:42 | 39.03872 | -20.10683 | 38086 ft | 446 kts | 294° |
| 2026-04-28 21:43 | 39.06441 | -20.17944 | 38089 ft | 446 kts | 293° |
| 2026-04-28 21:43 | 39.09003 | -20.25214 | 38086 ft | 446 kts | 293° |
| 2026-04-28 21:44 | 39.11570 | -20.32480 | 38086 ft | 446 kts | 293° |
| 2026-04-28 21:44 | 39.14143 | -20.39756 | 38089 ft | 446 kts | 293° |
| 2026-04-28 21:45 | 39.16709 | -20.47029 | 38086 ft | 446 kts | 293° |
| 2026-04-28 21:45 | 39.19275 | -20.54319 | 38086 ft | 447 kts | 293° |
| 2026-04-28 21:46 | 39.21842 | -20.61633 | 38088 ft | 448 kts | 293° |
| 2026-04-28 21:46 | 39.24406 | -20.68957 | 38088 ft | 448 kts | 293° |
| 2026-04-28 21:47 | 39.26960 | -20.76274 | 38088 ft | 447 kts | 293° |
| 2026-04-28 21:47 | 39.29510 | -20.83592 | 38085 ft | 448 kts | 292° |
| 2026-04-28 21:48 | 39.32067 | -20.90952 | 38088 ft | 449 kts | 292° |
| 2026-04-28 21:48 | 39.34622 | -20.98326 | 38088 ft | 450 kts | 292° |
| 2026-04-28 21:49 | 39.37172 | -21.05703 | 38088 ft | 450 kts | 292° |
| 2026-04-28 21:49 | 39.39701 | -21.13039 | 38087 ft | 450 kts | 292° |
| 2026-04-28 21:50 | 39.42245 | -21.20436 | 38086 ft | 451 kts | 292° |
| 2026-04-28 21:50 | 39.44792 | -21.27862 | 38086 ft | 452 kts | 292° |
| 2026-04-28 21:51 | 39.47334 | -21.35291 | 38086 ft | 452 kts | 292° |
| 2026-04-28 21:51 | 39.49873 | -21.42732 | 38086 ft | 452 kts | 292° |
| 2026-04-28 21:52 | 39.52410 | -21.50183 | 38093 ft | 453 kts | 292° |
| 2026-04-28 21:52 | 39.54950 | -21.57669 | 38080 ft | 455 kts | 292° |
| 2026-04-28 21:53 | 39.57489 | -21.65168 | 38083 ft | 455 kts | 292° |
| 2026-04-28 21:53 | 39.60029 | -21.72687 | 38083 ft | 455 kts | 292° |
| 2026-04-28 21:54 | 39.62560 | -21.80204 | 38086 ft | 455 kts | 292° |
| 2026-04-28 21:54 | 39.65091 | -21.87737 | 38078 ft | 456 kts | 291° |
| 2026-04-28 21:55 | 39.67621 | -21.95293 | 38083 ft | 457 kts | 292° |
| 2026-04-28 21:55 | 39.70153 | -22.02870 | 38083 ft | 457 kts | 291° |
| 2026-04-28 21:56 | 39.72695 | -22.10431 | 38075 ft | 457 kts | 291° |
| 2026-04-28 21:56 | 39.75210 | -22.18021 | 38075 ft | 457 kts | 291° |
| 2026-04-28 21:57 | 39.77715 | -22.25611 | 38075 ft | 457 kts | 291° |
| 2026-04-28 21:57 | 39.80221 | -22.33205 | 38075 ft | 456 kts | 291° |
| 2026-04-28 21:58 | 39.82718 | -22.40782 | 38075 ft | 456 kts | 291° |
| 2026-04-28 21:58 | 39.85214 | -22.48372 | 38072 ft | 456 kts | 291° |
| 2026-04-28 21:59 | 39.87711 | -22.55988 | 38071 ft | 458 kts | 291° |
| 2026-04-28 22:00 | 39.91454 | -22.67441 | 38069 ft | 458 kts | 291° |
| 2026-04-28 22:00 | 39.93926 | -22.75031 | 38067 ft | 457 kts | 291° |
| 2026-04-28 22:01 | 39.96420 | -22.82712 | 38066 ft | 458 kts | 291° |
| 2026-04-28 22:01 | 39.98883 | -22.90318 | 38061 ft | 459 kts | 291° |
| 2026-04-28 22:02 | 40.01361 | -22.97993 | 38059 ft | 459 kts | 291° |
| 2026-04-28 22:02 | 40.03836 | -23.05676 | 38058 ft | 459 kts | 291° |
| 2026-04-28 22:03 | 40.06303 | -23.13356 | 38057 ft | 459 kts | 291° |
| 2026-04-28 22:03 | 40.08768 | -23.21052 | 38056 ft | 461 kts | 290° |
| 2026-04-28 22:04 | 40.11235 | -23.28780 | 38053 ft | 461 kts | 290° |
| 2026-04-28 22:04 | 40.13701 | -23.36520 | 38048 ft | 461 kts | 290° |
| 2026-04-28 22:05 | 40.16161 | -23.44265 | 38053 ft | 461 kts | 290° |
| 2026-04-28 22:05 | 40.18617 | -23.52020 | 38048 ft | 462 kts | 290° |
| 2026-04-28 22:06 | 40.21069 | -23.59783 | 38046 ft | 462 kts | 290° |
| 2026-04-28 22:06 | 40.23516 | -23.67556 | 38039 ft | 462 kts | 290° |
| 2026-04-28 22:07 | 40.25957 | -23.75331 | 38048 ft | 462 kts | 290° |
| 2026-04-28 22:07 | 40.28399 | -23.83126 | 38034 ft | 463 kts | 290° |
| 2026-04-28 22:08 | 40.30834 | -23.90929 | 38031 ft | 463 kts | 290° |
| 2026-04-28 22:08 | 40.33269 | -23.98749 | 38034 ft | 463 kts | 290° |
| 2026-04-28 22:09 | 40.35698 | -24.06574 | 38023 ft | 463 kts | 290° |
| 2026-04-28 22:09 | 40.38122 | -24.14406 | 38010 ft | 465 kts | 289° |
| 2026-04-28 22:10 | 40.40549 | -24.22269 | 38012 ft | 465 kts | 289° |
| 2026-04-28 22:10 | 40.42973 | -24.30146 | 38033 ft | 465 kts | 289° |
| 2026-04-28 22:11 | 40.45389 | -24.38022 | 38012 ft | 465 kts | 289° |
| 2026-04-28 22:11 | 40.47785 | -24.45853 | 38009 ft | 466 kts | 289° |
| 2026-04-28 22:12 | 40.50201 | -24.53773 | 38005 ft | 467 kts | 289° |
| 2026-04-28 22:12 | 40.52613 | -24.61703 | 38006 ft | 467 kts | 289° |
| 2026-04-28 22:13 | 40.55014 | -24.69621 | 38003 ft | 466 kts | 289° |
| 2026-04-28 22:13 | 40.57409 | -24.77539 | 37992 ft | 465 kts | 289° |
| 2026-04-28 22:14 | 40.59407 | -24.84165 | 37996 ft | 465 kts | 288° |
| 2026-04-28 22:14 | 40.61783 | -24.92066 | 37987 ft | 465 kts | 288° |
| 2026-04-28 22:15 | 40.64156 | -24.99984 | 37993 ft | 465 kts | 288° |
| 2026-04-28 22:15 | 40.66526 | -25.07911 | 37987 ft | 466 kts | 288° |
| 2026-04-28 22:16 | 40.68892 | -25.15855 | 37988 ft | 466 kts | 288° |
| 2026-04-28 22:16 | 40.71239 | -25.23759 | 37987 ft | 466 kts | 288° |
| 2026-04-28 22:17 | 40.73594 | -25.31713 | 37982 ft | 466 kts | 288° |
| 2026-04-28 22:17 | 40.75947 | -25.39682 | 37975 ft | 467 kts | 288° |
| 2026-04-28 22:18 | 40.78301 | -25.47677 | 37977 ft | 468 kts | 288° |
| 2026-04-28 22:18 | 40.80653 | -25.55691 | 37971 ft | 468 kts | 288° |
| 2026-04-28 22:19 | 40.82997 | -25.63702 | 37971 ft | 468 kts | 288° |
| 2026-04-28 22:19 | 40.85345 | -25.71748 | 37965 ft | 471 kts | 287° |
| 2026-04-28 22:20 | 40.87697 | -25.79842 | 37958 ft | 473 kts | 287° |
| 2026-04-28 22:20 | 40.90053 | -25.87968 | 37960 ft | 474 kts | 287° |
| 2026-04-28 22:21 | 40.92404 | -25.96099 | 37971 ft | 474 kts | 287° |
| 2026-04-28 22:21 | 40.94750 | -26.04237 | 37951 ft | 473 kts | 287° |
| 2026-04-28 22:22 | 40.97086 | -26.12376 | 37951 ft | 474 kts | 287° |
| 2026-04-28 22:22 | 40.99422 | -26.20538 | 37946 ft | 475 kts | 287° |
| 2026-04-28 22:23 | 41.01758 | -26.28722 | 37936 ft | 475 kts | 287° |
| 2026-04-28 22:23 | 41.04091 | -26.36922 | 37937 ft | 476 kts | 287° |
| 2026-04-28 22:24 | 41.06418 | -26.45132 | 37948 ft | 476 kts | 286° |
| 2026-04-28 22:24 | 41.08742 | -26.53357 | 37922 ft | 476 kts | 286° |
| 2026-04-28 22:25 | 41.11061 | -26.61584 | 37936 ft | 477 kts | 286° |
| 2026-04-28 22:25 | 41.13377 | -26.69834 | 37925 ft | 477 kts | 286° |
| 2026-04-28 22:26 | 41.15688 | -26.78090 | 37920 ft | 478 kts | 286° |
| 2026-04-28 22:26 | 41.17993 | -26.86354 | 37920 ft | 477 kts | 286° |
| 2026-04-28 22:27 | 41.20294 | -26.94628 | 37917 ft | 479 kts | 285° |
| 2026-04-28 22:27 | 41.22597 | -27.02936 | 37914 ft | 479 kts | 285° |
| 2026-04-28 22:28 | 41.24893 | -27.11248 | 37914 ft | 479 kts | 285° |
| 2026-04-28 22:28 | 41.27182 | -27.19562 | 37928 ft | 480 kts | 285° |
| 2026-04-28 22:29 | 41.29474 | -27.27918 | 37903 ft | 482 kts | 285° |
| 2026-04-28 22:29 | 41.31770 | -27.36313 | 37907 ft | 483 kts | 285° |
| 2026-04-28 22:30 | 41.34060 | -27.44711 | 37906 ft | 483 kts | 285° |
| 2026-04-28 22:30 | 41.36345 | -27.53120 | 37906 ft | 484 kts | 285° |
| 2026-04-28 22:31 | 41.38631 | -27.61564 | 37902 ft | 485 kts | 285° |
| 2026-04-28 22:31 | 41.40913 | -27.70022 | 37903 ft | 485 kts | 285° |
| 2026-04-28 22:32 | 41.43187 | -27.78478 | 37922 ft | 485 kts | 284° |
| 2026-04-28 22:32 | 41.45464 | -27.86974 | 37900 ft | 487 kts | 284° |
| 2026-04-28 22:33 | 41.47737 | -27.95488 | 37898 ft | 488 kts | 284° |
| 2026-04-28 22:33 | 41.49995 | -28.03971 | 37900 ft | 489 kts | 284° |
| 2026-04-28 22:34 | 41.52264 | -28.12524 | 37902 ft | 489 kts | 284° |
| 2026-04-28 22:34 | 41.54524 | -28.21077 | 37919 ft | 489 kts | 284° |
| 2026-04-28 22:35 | 41.56786 | -28.29666 | 37904 ft | 492 kts | 284° |
| 2026-04-28 22:35 | 41.59055 | -28.38320 | 37896 ft | 495 kts | 284° |
| 2026-04-28 22:36 | 41.61329 | -28.47014 | 37899 ft | 496 kts | 284° |
| 2026-04-28 22:36 | 41.63597 | -28.55712 | 37899 ft | 496 kts | 283° |
| 2026-04-28 22:37 | 41.65858 | -28.64420 | 37910 ft | 496 kts | 283° |
| 2026-04-28 22:37 | 41.68114 | -28.73142 | 37897 ft | 497 kts | 283° |
| 2026-04-28 22:38 | 41.70370 | -28.81895 | 37898 ft | 497 kts | 283° |
| 2026-04-28 22:38 | 41.72619 | -28.90653 | 37893 ft | 498 kts | 283° |
| 2026-04-28 22:39 | 41.74861 | -28.99415 | 37895 ft | 498 kts | 283° |
| 2026-04-28 22:39 | 41.77102 | -29.08205 | 37894 ft | 499 kts | 283° |
| 2026-04-28 22:40 | 41.79340 | -29.17019 | 37899 ft | 500 kts | 283° |
| 2026-04-28 22:40 | 41.81574 | -29.25846 | 37893 ft | 500 kts | 283° |
| 2026-04-28 22:41 | 41.83800 | -29.34672 | 37891 ft | 501 kts | 283° |
| 2026-04-28 22:41 | 41.86028 | -29.43550 | 37889 ft | 504 kts | 283° |
| 2026-04-28 22:42 | 41.88259 | -29.52466 | 37887 ft | 504 kts | 283° |
| 2026-04-28 22:42 | 41.90484 | -29.61388 | 37887 ft | 504 kts | 282° |
| 2026-04-28 22:43 | 41.92702 | -29.70317 | 37901 ft | 504 kts | 282° |
| 2026-04-28 22:43 | 41.94915 | -29.79260 | 37887 ft | 505 kts | 282° |
| 2026-04-28 22:44 | 41.97123 | -29.88223 | 37889 ft | 506 kts | 282° |
| 2026-04-28 22:44 | 41.99327 | -29.97218 | 37886 ft | 506 kts | 282° |
| 2026-04-28 22:45 | 42.00941 | -30.06345 | 37886 ft | 501 kts | 276° |
| 2026-04-28 22:45 | 42.02294 | -30.15532 | 37887 ft | 500 kts | 275° |
| 2026-04-28 22:46 | 42.03596 | -30.24726 | 37885 ft | 501 kts | 275° |
| 2026-04-28 22:46 | 42.04889 | -30.33867 | 37910 ft | 501 kts | 275° |
| 2026-04-28 22:47 | 42.06202 | -30.43140 | 37878 ft | 501 kts | 276° |
| 2026-04-28 22:47 | 42.07505 | -30.52356 | 37883 ft | 501 kts | 276° |
| 2026-04-28 22:48 | 42.08790 | -30.61507 | 37886 ft | 501 kts | 276° |
| 2026-04-28 22:48 | 42.10085 | -30.70781 | 37883 ft | 501 kts | 276° |
| 2026-04-28 22:49 | 42.11354 | -30.79938 | 37881 ft | 501 kts | 276° |
| 2026-04-28 22:49 | 42.12623 | -30.89162 | 37881 ft | 501 kts | 277° |
| 2026-04-28 22:50 | 42.13886 | -30.98385 | 37877 ft | 501 kts | 277° |
| 2026-04-28 22:50 | 42.15143 | -31.07621 | 37873 ft | 501 kts | 277° |
| 2026-04-28 22:51 | 42.16392 | -31.16860 | 37883 ft | 501 kts | 277° |
| 2026-04-28 22:51 | 42.17634 | -31.26109 | 37874 ft | 501 kts | 277° |
| 2026-04-28 22:52 | 42.18870 | -31.35360 | 37880 ft | 502 kts | 277° |
| 2026-04-28 22:52 | 42.20098 | -31.44619 | 37876 ft | 502 kts | 277° |
| 2026-04-28 22:53 | 42.21319 | -31.53893 | 37878 ft | 502 kts | 277° |
| 2026-04-28 22:53 | 42.22534 | -31.63174 | 37880 ft | 502 kts | 277° |
| 2026-04-28 22:54 | 42.23741 | -31.72455 | 37875 ft | 502 kts | 277° |
| 2026-04-28 22:54 | 42.24939 | -31.81736 | 37888 ft | 502 kts | 277° |
| 2026-04-28 22:55 | 42.26130 | -31.91014 | 37879 ft | 502 kts | 277° |
| 2026-04-28 22:55 | 42.27314 | -32.00304 | 37883 ft | 502 kts | 278° |
| 2026-04-28 22:56 | 42.28494 | -32.09616 | 37882 ft | 503 kts | 277° |
| 2026-04-28 22:56 | 42.29665 | -32.18929 | 37881 ft | 503 kts | 277° |
| 2026-04-28 22:57 | 42.30633 | -32.26670 | 37879 ft | 503 kts | 277° |
| 2026-04-28 22:57 | 42.31790 | -32.35984 | 37894 ft | 503 kts | 278° |
| 2026-04-28 22:58 | 42.32940 | -32.45310 | 37879 ft | 503 kts | 278° |
| 2026-04-28 22:58 | 42.34081 | -32.54629 | 37884 ft | 503 kts | 277° |
| 2026-04-28 22:59 | 42.35217 | -32.63973 | 37879 ft | 503 kts | 278° |
| 2026-04-28 22:59 | 42.36345 | -32.73303 | 37890 ft | 503 kts | 277° |
| 2026-04-28 23:00 | 42.37465 | -32.82647 | 37890 ft | 502 kts | 278° |
| 2026-04-28 23:00 | 42.38574 | -32.91957 | 37887 ft | 501 kts | 278° |
| 2026-04-28 23:01 | 42.39674 | -33.01262 | 37888 ft | 501 kts | 278° |
| 2026-04-28 23:01 | 42.40766 | -33.10569 | 37897 ft | 500 kts | 278° |
| 2026-04-28 23:02 | 42.41850 | -33.19868 | 37893 ft | 500 kts | 278° |
| 2026-04-28 23:02 | 42.42924 | -33.29169 | 37899 ft | 500 kts | 278° |
| 2026-04-28 23:03 | 42.43991 | -33.38471 | 37906 ft | 499 kts | 278° |
| 2026-04-28 23:03 | 42.45050 | -33.47750 | 37906 ft | 499 kts | 278° |
| 2026-04-28 23:04 | 42.46101 | -33.57037 | 37907 ft | 499 kts | 278° |
| 2026-04-28 23:04 | 42.47662 | -33.70960 | 37910 ft | 499 kts | 278° |
| 2026-04-28 23:05 | 42.48694 | -33.80253 | 37914 ft | 499 kts | 278° |
| 2026-04-28 23:05 | 42.49718 | -33.89554 | 37910 ft | 498 kts | 278° |
| 2026-04-28 23:06 | 42.50733 | -33.98834 | 37915 ft | 498 kts | 278° |
| 2026-04-28 23:06 | 42.51741 | -34.08123 | 37916 ft | 498 kts | 278° |
| 2026-04-28 23:07 | 42.52741 | -34.17412 | 37933 ft | 498 kts | 278° |
| 2026-04-28 23:07 | 42.53732 | -34.26696 | 37927 ft | 498 kts | 279° |
| 2026-04-28 23:08 | 42.54717 | -34.35974 | 37926 ft | 496 kts | 279° |
| 2026-04-28 23:08 | 42.55688 | -34.45214 | 37947 ft | 495 kts | 279° |
| 2026-04-28 23:09 | 42.56652 | -34.54456 | 37947 ft | 494 kts | 279° |
| 2026-04-28 23:09 | 42.57606 | -34.63693 | 37949 ft | 495 kts | 278° |
| 2026-04-28 23:10 | 42.58553 | -34.72936 | 37931 ft | 495 kts | 278° |
| 2026-04-28 23:10 | 42.59487 | -34.82103 | 37947 ft | 493 kts | 280° |
| 2026-04-28 23:11 | 42.60413 | -34.91290 | 37947 ft | 490 kts | 279° |
| 2026-04-28 23:11 | 42.61337 | -35.00510 | 37956 ft | 489 kts | 279° |
| 2026-04-28 23:12 | 42.62247 | -35.09681 | 37957 ft | 490 kts | 279° |
| 2026-04-28 23:12 | 42.63143 | -35.18780 | 37964 ft | 489 kts | 280° |
| 2026-04-28 23:13 | 42.64039 | -35.27938 | 37957 ft | 489 kts | 279° |
| 2026-04-28 23:13 | 42.64924 | -35.37081 | 37971 ft | 488 kts | 279° |
| 2026-04-28 23:14 | 42.65800 | -35.46205 | 37975 ft | 487 kts | 279° |
| 2026-04-28 23:14 | 42.66670 | -35.55334 | 37973 ft | 487 kts | 280° |
| 2026-04-28 23:15 | 42.67532 | -35.64457 | 37982 ft | 487 kts | 280° |
| 2026-04-28 23:15 | 42.68385 | -35.73581 | 37980 ft | 487 kts | 279° |
| 2026-04-28 23:16 | 42.69229 | -35.82690 | 37985 ft | 484 kts | 279° |
| 2026-04-28 23:16 | 42.70062 | -35.91746 | 37987 ft | 482 kts | 279° |
| 2026-04-28 23:17 | 42.70888 | -36.00800 | 37996 ft | 482 kts | 279° |
| 2026-04-28 23:17 | 42.71706 | -36.09851 | 37997 ft | 482 kts | 279° |
| 2026-04-28 23:18 | 42.72517 | -36.18912 | 37999 ft | 482 kts | 279° |
| 2026-04-28 23:18 | 42.73320 | -36.27968 | 38005 ft | 482 kts | 279° |
| 2026-04-28 23:19 | 42.74115 | -36.37020 | 38007 ft | 482 kts | 279° |
| 2026-04-28 23:19 | 42.74903 | -36.46074 | 38012 ft | 482 kts | 279° |
| 2026-04-28 23:20 | 42.75683 | -36.55120 | 38012 ft | 482 kts | 279° |
| 2026-04-28 23:20 | 42.76457 | -36.64175 | 38014 ft | 482 kts | 279° |
| 2026-04-28 23:21 | 42.77224 | -36.73240 | 38014 ft | 481 kts | 279° |
| 2026-04-28 23:21 | 42.77979 | -36.82256 | 38018 ft | 477 kts | 279° |
| 2026-04-28 23:22 | 42.78722 | -36.91213 | 38026 ft | 476 kts | 279° |
| 2026-04-28 23:22 | 42.79460 | -37.00171 | 38026 ft | 476 kts | 279° |
| 2026-04-28 23:23 | 42.80190 | -37.09124 | 38026 ft | 476 kts | 279° |
| 2026-04-28 23:23 | 42.80912 | -37.18084 | 38031 ft | 476 kts | 279° |
| 2026-04-28 23:24 | 42.81627 | -37.27042 | 38026 ft | 476 kts | 279° |
| 2026-04-28 23:24 | 42.82333 | -37.35979 | 38038 ft | 474 kts | 278° |
| 2026-04-28 23:25 | 42.83031 | -37.44904 | 38041 ft | 473 kts | 279° |
| 2026-04-28 23:25 | 42.83722 | -37.53817 | 38044 ft | 473 kts | 278° |
| 2026-04-28 23:26 | 42.84406 | -37.62733 | 38052 ft | 473 kts | 278° |
| 2026-04-28 23:26 | 42.85083 | -37.71659 | 38050 ft | 472 kts | 278° |
| 2026-04-28 23:27 | 42.85749 | -37.80528 | 38054 ft | 470 kts | 278° |
| 2026-04-28 23:27 | 42.86404 | -37.89362 | 38070 ft | 468 kts | 278° |
| 2026-04-28 23:28 | 42.87051 | -37.98168 | 38070 ft | 467 kts | 278° |
| 2026-04-28 23:28 | 42.87692 | -38.06973 | 38074 ft | 468 kts | 278° |
| 2026-04-28 23:29 | 42.88325 | -38.15792 | 38071 ft | 466 kts | 278° |
| 2026-04-28 23:29 | 42.88952 | -38.24573 | 38074 ft | 465 kts | 277° |
| 2026-04-28 23:30 | 42.89572 | -38.33377 | 38087 ft | 466 kts | 278° |
| 2026-04-28 23:30 | 42.90182 | -38.42159 | 38091 ft | 465 kts | 277° |
| 2026-04-28 23:31 | 42.90782 | -38.50882 | 38089 ft | 466 kts | 277° |
| 2026-04-28 23:31 | 42.91380 | -38.59678 | 38087 ft | 465 kts | 277° |
| 2026-04-28 23:32 | 42.91972 | -38.68462 | 38101 ft | 465 kts | 277° |
| 2026-04-28 23:32 | 42.92556 | -38.77250 | 38100 ft | 465 kts | 277° |
| 2026-04-28 23:33 | 42.93133 | -38.86022 | 38109 ft | 464 kts | 277° |
| 2026-04-28 23:33 | 42.93704 | -38.94812 | 38111 ft | 465 kts | 277° |
| 2026-04-28 23:34 | 42.94267 | -39.03600 | 38115 ft | 465 kts | 277° |
| 2026-04-28 23:34 | 42.94823 | -39.12380 | 38115 ft | 465 kts | 277° |
| 2026-04-28 23:35 | 42.95374 | -39.21182 | 38119 ft | 465 kts | 277° |
| 2026-04-28 23:35 | 42.95917 | -39.29962 | 38119 ft | 464 kts | 277° |
| 2026-04-28 23:36 | 42.96452 | -39.38735 | 38127 ft | 462 kts | 277° |
| 2026-04-28 23:36 | 42.96979 | -39.47475 | 38134 ft | 462 kts | 277° |
| 2026-04-28 23:37 | 42.97500 | -39.56213 | 38133 ft | 462 kts | 277° |
| 2026-04-28 23:37 | 42.98013 | -39.64952 | 38138 ft | 462 kts | 277° |
| 2026-04-28 23:38 | 42.98519 | -39.73682 | 38140 ft | 460 kts | 277° |
| 2026-04-28 23:38 | 42.99017 | -39.82385 | 38140 ft | 460 kts | 277° |
| 2026-04-28 23:39 | 42.99506 | -39.91064 | 38153 ft | 457 kts | 277° |
| 2026-04-28 23:39 | 43.00063 | -39.99692 | 38150 ft | 455 kts | 281° |
| 2026-04-28 23:40 | 43.00976 | -40.06755 | 38155 ft | 454 kts | 283° |
| 2026-04-28 23:40 | 43.02186 | -40.15214 | 38151 ft | 453 kts | 283° |
| 2026-04-28 23:41 | 43.03416 | -40.23642 | 38169 ft | 452 kts | 283° |
| 2026-04-28 23:41 | 43.04633 | -40.32068 | 38158 ft | 452 kts | 283° |
| 2026-04-28 23:42 | 43.05835 | -40.40490 | 38173 ft | 451 kts | 283° |
| 2026-04-28 23:42 | 43.07022 | -40.48881 | 38171 ft | 449 kts | 283° |
| 2026-04-28 23:43 | 43.08201 | -40.57255 | 38163 ft | 448 kts | 283° |
| 2026-04-28 23:43 | 43.09374 | -40.65629 | 38175 ft | 448 kts | 283° |
| 2026-04-28 23:44 | 43.10540 | -40.74002 | 38179 ft | 448 kts | 283° |
| 2026-04-28 23:44 | 43.11700 | -40.82374 | 38189 ft | 448 kts | 283° |
| 2026-04-28 23:45 | 43.12854 | -40.90755 | 38189 ft | 448 kts | 283° |
| 2026-04-28 23:45 | 43.14002 | -40.99135 | 38192 ft | 448 kts | 283° |
| 2026-04-28 23:46 | 43.15141 | -41.07503 | 38184 ft | 446 kts | 282° |
| 2026-04-28 23:46 | 43.16270 | -41.15846 | 38193 ft | 446 kts | 282° |
| 2026-04-28 23:47 | 43.17395 | -41.24198 | 38196 ft | 446 kts | 282° |